Time;durP1;ratioP1;P1;durP2;ratioP2;P2;SDS_P1;SDS_P2;PMS_P1;PMS_P2;Temp;Humidity;BMP_temperature;BMP_pressure;BME280_temperature;BME280_humidity;BME280_pressure;Samples;Min_cycle;Max_cycle;Signal;HPM_P1;HPM_P2
2022/06/24 00:01:17;;;;;;;9.53;4.65;;;;;;;14.78;57.53;98832.47;1443192;81;21292;-70
2022/06/24 00:03:19;;;;;;;4.53;4.12;;;;;;;14.72;57.60;98832.06;1440471;82;80461;-70
2022/06/24 00:05:20;;;;;;;4.92;4.42;;;;;;;14.60;57.94;98832.37;1443646;82;21557;-70
2022/06/24 00:07:21;;;;;;;;;;;;;;;14.60;57.94;98832.37;1445935;81;21012;-69
2022/06/24 00:09:24;;;;;;;8.88;5.33;;;;;;;14.62;58.00;98845.03;1442540;81;66893;-69
2022/06/24 00:11:27;;;;;;;5.47;4.30;;;;;;;14.57;57.96;98841.86;1443918;81;21551;-69
2022/06/24 00:13:40;;;;;;;5.72;4.78;;;;;;;14.52;57.98;98840.83;1443471;81;21075;-70
2022/06/24 00:15:41;;;;;;;6.40;4.78;;;;;;;14.49;58.02;98843.69;1441825;81;81249;-70
2022/06/24 00:17:42;;;;;;;16.45;4.97;;;;;;;14.46;58.10;98839.44;1442947;81;21027;-70
2022/06/24 00:19:50;;;;;;;;;;;;;;;14.46;58.19;98835.45;1434156;81;21029;-70
2022/06/24 00:22:04;;;;;;;30.50;5.60;;;;;;;14.43;58.43;98835.67;1415154;82;67105;-70
2022/06/24 00:24:06;;;;;;;17.27;4.85;;;;;;;14.36;58.34;98842.34;1382114;84;21057;-70
2022/06/24 00:26:07;;;;;;;42.10;5.67;;;;;;;14.29;58.55;98842.37;1418294;82;81788;-69
2022/06/24 00:28:11;;;;;;;14.80;5.30;;;;;;;14.31;58.56;98843.11;1382977;84;21575;-70
2022/06/24 00:30:15;;;;;;;20.20;5.10;;;;;;;14.29;58.56;98846.34;1419595;82;21050;-70
2022/06/24 00:32:18;;;;;;;10.82;4.22;;;;;;;14.29;58.59;98846.34;1417312;82;81151;-71
2022/06/24 00:34:23;;;;;;;24.52;5.45;;;;;;;14.29;58.66;98846.34;1382425;83;21046;-70
2022/06/24 00:36:25;;;;;;;15.58;5.78;;;;;;;14.27;58.67;98842.93;1418650;82;21105;-70
2022/06/24 00:38:35;;;;;;;14.75;5.20;;;;;;;14.26;58.72;98843.42;1422566;82;80798;-70
2022/06/24 00:40:37;;;;;;;9.43;5.62;;;;;;;14.26;58.82;98846.07;1417944;82;21005;-70
2022/06/24 00:42:44;;;;;;;6.35;5.22;;;;;;;14.24;58.82;98848.44;1383789;84;21391;-70
2022/06/24 00:44:49;;;;;;;8.73;4.60;;;;;;;14.19;58.87;98850.08;1418579;82;80498;-69
2022/06/24 00:46:52;;;;;;;4.60;4.17;;;;;;;14.14;58.96;98842.41;1415873;82;21147;-70
2022/06/24 00:48:58;;;;;;;9.45;4.37;;;;;;;14.11;59.01;98843.94;1417806;82;20994;-71
2022/06/24 00:51:00;;;;;;;11.08;4.47;;;;;;;14.11;59.06;98838.64;1417074;82;81714;-70
2022/06/24 00:53:01;;;;;;;13.48;4.25;;;;;;;14.10;59.06;98844.88;1415597;82;21008;-70
2022/06/24 00:55:02;;;;;;;;;;;;;;;14.09;59.06;98840.52;1422049;82;21303;-70
2022/06/24 00:57:04;;;;;;;7.20;4.78;;;;;;;14.10;59.27;98838.25;1419321;82;66918;-70
2022/06/24 00:59:07;;;;;;;9.33;4.83;;;;;;;14.09;59.15;98837.88;1418430;82;21096;-70
2022/06/24 01:01:10;;;;;;;13.28;5.12;;;;;;;14.10;59.12;98828.98;1418286;82;21079;-70
2022/06/24 01:03:14;;;;;;;15.70;5.03;;;;;;;14.10;59.15;98832.12;1417886;82;80923;-70
2022/06/24 01:05:17;;;;;;;8.50;5.12;;;;;;;14.09;59.15;98827.75;1419418;82;21521;-70
2022/06/24 01:07:18;;;;;;;9.58;5.83;;;;;;;14.12;59.17;98834.17;1418978;82;21090;-69
2022/06/24 01:09:20;;;;;;;7.20;4.95;;;;;;;14.14;59.14;98833.13;1416974;82;81828;-71
2022/06/24 01:11:29;;;;;;;8.75;5.20;;;;;;;14.18;59.08;98827.63;1384498;84;21611;-70
2022/06/24 01:13:30;;;;;;;6.05;4.75;;;;;;;14.21;59.09;98827.45;1418778;81;21041;-69
2022/06/24 01:15:31;;;;;;;;;;;;;;;14.21;59.08;98831.42;1422172;82;81810;-69
2022/06/24 01:17:33;;;;;;;8.63;5.08;;;;;;;14.20;59.23;98827.06;1419086;82;20185;-69
2022/06/24 01:19:34;;;;;;;12.33;5.10;;;;;;;14.17;59.30;98829.92;1422358;81;21142;-70
2022/06/24 01:21:47;;;;;;;8.18;5.22;;;;;;;14.11;59.30;98821.41;1446860;80;81666;-68
2022/06/24 01:23:48;;;;;;;10.80;4.97;;;;;;;14.05;59.23;98819.63;1449369;80;21093;-69
2022/06/24 01:25:49;;;;;;;5.80;5.12;;;;;;;14.01;59.39;98819.00;1448203;80;21015;-69
2022/06/24 01:27:50;;;;;;;6.55;5.22;;;;;;;13.94;59.34;98815.89;1446549;80;81504;-71
2022/06/24 01:29:51;;;;;;;;;;;;;;;13.91;59.49;98812.58;1452107;81;21072;-69
2022/06/24 01:31:53;;;;;;;6.08;5.33;;;;;;;13.86;59.74;98814.66;1448737;80;20460;-69
2022/06/24 01:33:55;;;;;;;6.12;5.60;;;;;;;13.82;59.74;98811.84;1445749;80;80809;-70
2022/06/24 01:35:56;;;;;;;5.28;4.87;;;;;;;13.79;59.76;98809.77;1419322;83;21562;-70
2022/06/24 01:37:57;;;;;;;8.83;5.42;;;;;;;13.77;59.80;98809.49;1396556;83;21066;-70
2022/06/24 01:39:58;;;;;;;7.45;5.35;;;;;;;13.77;59.81;98809.01;1393493;85;80339;-70
2022/06/24 01:41:59;;;;;;;;;;;;;;;13.77;59.88;98809.01;1397104;83;21003;-70
2022/06/24 01:44:01;;;;;;;11.43;5.72;;;;;;;13.77;60.04;98807.69;1393437;83;20520;-70
2022/06/24 01:46:04;;;;;;;9.00;5.58;;;;;;;13.75;59.96;98810.92;1410894;82;80887;-70
2022/06/24 01:48:05;;;;;;;10.78;5.87;;;;;;;13.69;59.97;98806.48;1419563;83;20961;-70
2022/06/24 01:50:07;;;;;;;5.58;5.15;;;;;;;13.63;60.02;98809.05;1383404;84;80946;-70
2022/06/24 01:52:08;;;;;;;7.45;5.70;;;;;;;13.59;60.14;98808.87;1448297;80;20965;-70
2022/06/24 01:54:09;;;;;;;;;;;;;;;13.57;60.20;98812.11;1451598;80;20983;-70
2022/06/24 01:56:10;;;;;;;11.40;5.60;;;;;;;13.55;60.45;98809.52;1421176;83;67199;-69
2022/06/24 01:58:11;;;;;;;;;;;;;;;13.51;60.38;98809.83;1424431;81;21058;-70
2022/06/24 02:00:13;;;;;;;12.30;5.28;;;;;;;13.45;60.61;98806.61;1421455;81;20153;-70
2022/06/24 02:02:14;;;;;;;8.08;5.33;;;;;;;13.42;60.53;98813.91;1419218;83;81750;-70
2022/06/24 02:04:15;;;;;;;21.30;5.92;;;;;;;13.38;60.53;98813.73;1384307;84;21036;-70
2022/06/24 02:06:18;;;;;;;6.08;5.42;;;;;;;13.31;60.60;98811.89;1448470;80;20975;-70
2022/06/24 02:08:19;;;;;;;6.78;5.67;;;;;;;13.24;60.68;98810.09;1448649;81;81664;-70
2022/06/24 02:15:00;;;;;;;12.98;5.60;;;;;;;13.15;60.91;98813.78;1448359;80;81378;-70
2022/06/24 02:17:01;;;;;;;16.90;6.08;;;;;;;13.10;61.00;98805.66;1448325;80;21048;-70
2022/06/24 02:19:03;;;;;;;;;;;;;;;13.08;61.11;98809.34;1451781;80;21056;-70
2022/06/24 02:21:04;;;;;;;9.63;5.65;;;;;;;13.02;61.35;98806.59;1449337;80;66992;-70
2022/06/24 02:23:04;;;;;;;;;;;;;;;12.96;61.22;98797.73;1454695;81;21298;-71
2022/06/24 02:25:06;;;;;;;11.65;5.20;;;;;;;13.03;61.42;98805.66;1425907;81;20231;-71
2022/06/24 02:27:07;;;;;;;6.62;5.42;;;;;;;13.03;61.36;98808.76;1450895;80;80835;-71
2022/06/24 02:29:09;;;;;;;5.67;5.17;;;;;;;13.05;61.34;98806.41;1452649;80;21024;-71
2022/06/24 02:31:09;;;;;;;;;;;;;;;13.08;61.36;98808.89;1454962;80;20944;-70
2022/06/24 02:33:11;;;;;;;6.62;5.42;;;;;;;13.10;61.53;98804.34;1451099;80;67729;-71
2022/06/24 02:35:12;;;;;;;8.58;5.33;;;;;;;13.10;61.43;98803.02;1451050;80;20991;-70
2022/06/24 02:37:14;;;;;;;7.80;5.50;;;;;;;13.13;61.38;98797.17;1451937;80;20989;-70
2022/06/24 02:39:14;;;;;;;;;;;;;;;13.15;61.39;98802.72;1427488;82;80624;-70
2022/06/24 02:41:16;;;;;;;5.70;5.20;;;;;;;13.17;61.55;98794.71;1402952;83;20170;-70
2022/06/24 02:43:18;;;;;;;;;;;;;;;13.20;61.43;98803.78;1454566;80;21012;-70
2022/06/24 02:45:19;;;;;;;6.08;5.47;;;;;;;13.23;61.55;98803.58;1450175;80;68100;-70
2022/06/24 02:47:22;;;;;;;6.53;5.28;;;;;;;13.25;61.45;98806.97;1426552;83;21158;-70
2022/06/24 02:49:23;;;;;;;8.08;5.40;;;;;;;13.26;61.46;98802.93;1450641;80;21535;-71
2022/06/24 02:51:24;;;;;;;7.22;5.12;;;;;;;13.27;61.42;98809.90;1450599;80;81599;-71
2022/06/24 02:53:26;;;;;;;12.98;4.90;;;;;;;13.29;61.41;98807.16;1432347;82;21007;-70
2022/06/24 02:55:27;;;;;;;23.20;5.10;;;;;;;13.30;61.42;98808.86;1450897;80;21048;-70
2022/06/24 02:57:28;;;;;;;13.70;5.12;;;;;;;13.31;61.42;98811.06;1451229;80;81816;-70
2022/06/24 02:59:29;;;;;;;15.15;5.72;;;;;;;13.31;61.46;98811.89;1453025;81;20960;-70
2022/06/24 03:01:30;;;;;;;;;;;;;;;13.29;61.55;98813.31;1454071;80;21535;-70
2022/06/24 03:03:32;;;;;;;11.53;5.42;;;;;;;13.28;61.75;98820.03;1450737;80;68320;-71
2022/06/24 03:05:33;;;;;;;20.90;5.40;;;;;;;13.25;61.76;98817.55;1453574;80;21541;-71
2022/06/24 03:07:34;;;;;;;;;;;;;;;13.22;61.78;98815.11;1426236;82;21024;-71
2022/06/24 03:09:35;;;;;;;14.00;5.45;;;;;;;13.20;61.99;98812.55;1398939;83;68361;-71
2022/06/24 03:11:35;;;;;;;;;;;;;;;13.21;61.92;98812.07;1454992;81;21009;-71
2022/06/24 03:13:36;;;;;;;16.00;5.62;;;;;;;13.23;62.04;98815.00;1426129;82;20549;-71
2022/06/24 03:15:37;;;;;;;;;;;;;;;13.25;61.99;98814.91;1454203;80;80940;-70
2022/06/24 03:17:39;;;;;;;10.90;5.00;;;;;;;13.24;62.17;98811.91;1427004;82;20147;-71
2022/06/24 03:19:40;;;;;;;6.42;5.33;;;;;;;13.24;62.07;98815.88;1451841;80;21020;-72
2022/06/24 03:21:41;;;;;;;;;;;;;;;13.27;62.09;98815.19;1449304;80;81552;-71
2022/06/24 03:23:42;;;;;;;9.88;4.92;;;;;;;13.29;62.26;98816.42;1448443;80;20213;-71
2022/06/24 03:25:44;;;;;;;20.30;5.92;;;;;;;13.24;62.16;98806.61;1448012;80;21231;-70
2022/06/24 03:27:45;;;;;;;25.15;6.12;;;;;;;13.31;62.31;98817.19;1447183;80;80947;-71
2022/06/24 03:29:47;;;;;;;25.95;6.10;;;;;;;13.33;62.31;98816.61;1449783;81;21525;-71
2022/06/24 03:31:48;;;;;;;23.35;5.92;;;;;;;13.35;62.36;98807.27;1420726;82;21087;-71
2022/06/24 03:33:49;;;;;;;17.17;5.35;;;;;;;13.37;62.37;98812.86;1418203;82;81809;-71
2022/06/24 03:35:50;;;;;;;14.63;5.58;;;;;;;13.41;62.41;98815.69;1383450;84;21094;-71
2022/06/24 03:37:51;;;;;;;7.65;4.80;;;;;;;13.47;62.42;98818.91;1449051;80;21035;-70
2022/06/24 03:39:52;;;;;;;;;;;;;;;13.52;62.45;98816.83;1449382;80;81294;-71
2022/06/24 03:41:53;;;;;;;13.22;5.47;;;;;;;13.55;62.65;98818.80;1449333;82;21236;-71
2022/06/24 03:43:54;;;;;;;;;;;;;;;13.57;62.56;98825.34;1452652;80;21555;-70
2022/06/24 03:46:02;;;;;;;6.20;5.17;;;;;;;13.58;62.72;98821.72;1447559;80;66985;-71
2022/06/24 03:48:04;;;;;;;13.95;5.87;;;;;;;13.57;62.62;98823.53;1449771;80;21013;-70
2022/06/24 03:50:06;;;;;;;25.48;5.37;;;;;;;13.61;62.65;98822.39;1448198;80;21509;-70
2022/06/24 03:52:07;;;;;;;6.78;5.50;;;;;;;13.66;62.71;98822.09;1447309;80;21084;-71
2022/06/24 03:54:08;;;;;;;8.48;4.90;;;;;;;13.73;62.65;98820.75;1422617;82;21999;-71
2022/06/24 03:56:10;;;;;;;9.23;4.92;;;;;;;13.79;62.67;98825.67;1419364;82;81521;-70
2022/06/24 03:58:11;;;;;;;9.18;5.20;;;;;;;13.86;62.61;98826.59;1376733;83;21015;-71
2022/06/24 04:00:13;;;;;;;11.73;5.12;;;;;;;13.92;62.61;98831.02;1400531;84;21083;-70
2022/06/24 04:02:14;;;;;;;10.13;5.45;;;;;;;13.97;62.66;98829.42;1392912;84;82384;-70
2022/06/24 04:04:15;;;;;;;11.22;4.83;;;;;;;14.02;62.66;98836.58;1383376;84;21184;-70
2022/06/24 04:06:17;;;;;;;8.73;5.12;;;;;;;14.08;62.68;98836.19;1371023;85;22532;-71
2022/06/24 04:08:18;;;;;;;;;;;;;;;14.14;62.79;98833.62;1386248;84;81761;-71
2022/06/24 04:10:19;;;;;;;7.28;5.22;;;;;;;14.21;62.92;98836.23;1408863;83;20201;-71
2022/06/24 04:12:20;;;;;;;7.20;5.10;;;;;;;14.28;62.83;98841.99;1407831;83;21006;-71
2022/06/24 04:15:22;;;;;;;7.42;5.10;;;;;;;14.37;62.78;98840.06;1407917;83;81785;-71
2022/06/24 04:16:33;;;;;;;14.43;6.28;;;;;;;14.46;62.73;98842.09;1378935;83;21122;-70
2022/06/24 04:18:34;;;;;;;6.55;5.47;;;;;;;14.58;62.74;98836.45;1406513;83;21483;-70
2022/06/24 04:20:36;;;;;;;6.22;5.37;;;;;;;14.69;62.64;98839.75;1419758;82;80800;-71
2022/06/24 04:22:36;;;;;;;;;;;;;;;14.77;62.56;98829.92;1454198;80;21556;-70
2022/06/24 04:24:37;;;;;;;9.23;6.00;;;;;;;14.88;62.64;98837.16;1452228;80;20321;-70
2022/06/24 04:26:39;;;;;;;;;;;;;;;14.95;62.47;98833.13;1454324;81;80842;-70
2022/06/24 04:28:40;;;;;;;11.48;4.67;;;;;;;15.06;62.44;98835.88;1425244;82;20152;-71
2022/06/24 04:30:42;;;;;;;9.98;4.92;;;;;;;15.14;62.33;98837.53;1452231;80;21027;-71
2022/06/24 04:32:44;;;;;;;19.62;5.10;;;;;;;15.23;62.28;98839.17;1450643;80;81234;-69
2022/06/24 04:34:45;;;;;;;15.15;5.00;;;;;;;15.31;62.16;98839.49;1451203;80;21548;-70
2022/06/24 04:36:47;;;;;;;15.83;5.15;;;;;;;15.38;62.15;98847.42;1452163;80;21023;-71
2022/06/24 04:38:48;;;;;;;;;;;;;;;15.45;62.07;98851.80;1454483;80;81809;-71
2022/06/24 04:40:49;;;;;;;7.97;5.03;;;;;;;15.54;62.17;98843.19;1451503;80;20185;-70
2022/06/24 04:42:50;;;;;;;12.75;5.45;;;;;;;15.69;61.96;98846.57;1451523;80;21016;-71
2022/06/24 04:44:52;;;;;;;10.88;5.60;;;;;;;15.69;61.96;98846.57;1424244;83;80717;-71
2022/06/24 04:46:53;;;;;;;13.38;6.80;;;;;;;15.78;61.88;98845.92;1451344;80;21103;-71
2022/06/24 04:48:53;;;;;;;;;;;;;;;15.89;61.83;98845.64;1452614;80;21092;-70
2022/06/24 04:50:55;;;;;;;10.23;5.58;;;;;;;15.97;61.87;98849.92;1450265;80;67255;-71
2022/06/24 04:52:56;;;;;;;32.48;5.90;;;;;;;16.03;61.69;98846.80;1451296;80;21048;-72
2022/06/24 04:54:57;;;;;;;;;;;;;;;16.09;61.57;98845.05;1453914;80;21067;-71
2022/06/24 04:56:58;;;;;;;23.77;5.83;;;;;;;16.14;61.53;98843.37;1451659;81;66904;-71
2022/06/24 04:58:59;;;;;;;;;;;;;;;16.20;61.49;98842.93;1454289;80;20928;-72
2022/06/24 05:01:00;;;;;;;33.10;5.53;;;;;;;16.28;61.44;98842.34;1450662;80;20531;-71
2022/06/24 05:03:01;;;;;;;;;;;;;;;16.33;61.32;98838.88;1454041;81;81761;-70
2022/06/24 05:05:03;;;;;;;15.93;5.05;;;;;;;16.40;61.37;98836.61;1451718;80;20173;-70
2022/06/24 05:07:05;;;;;;;25.00;6.10;;;;;;;16.45;61.25;98834.47;1450646;80;21023;-71
2022/06/24 05:09:06;;;;;;;14.90;5.15;;;;;;;16.50;61.15;98831.83;1449780;81;80878;-72
2022/06/24 05:11:07;;;;;;;10.00;5.15;;;;;;;16.59;61.11;98829.44;1448667;80;21606;-71
2022/06/24 05:13:09;;;;;;;14.15;5.33;;;;;;;16.66;61.12;98833.32;1450089;80;21010;-70
2022/06/24 05:15:10;;;;;;;19.55;5.40;;;;;;;16.74;60.95;98828.27;1451706;81;80752;-70
2022/06/24 05:17:12;;;;;;;25.00;5.97;;;;;;;16.83;60.80;98830.20;1450558;80;20995;-70
2022/06/24 05:19:13;;;;;;;22.60;5.92;;;;;;;16.90;60.74;98832.45;1451854;80;21234;-71
2022/06/24 05:21:14;;;;;;;32.35;5.58;;;;;;;16.97;60.71;98833.66;1450954;80;80876;-71
2022/06/24 05:23:15;;;;;;;62.00;6.87;;;;;;;17.02;60.71;98828.34;1448048;80;21061;-71
2022/06/24 05:25:16;;;;;;;68.95;6.78;;;;;;;17.10;60.63;98830.42;1448504;80;21040;-71
2022/06/24 05:27:17;;;;;;;63.95;6.87;;;;;;;17.19;60.60;98836.34;1448220;80;82383;-71
2022/06/24 05:29:18;;;;;;;;;;;;;;;17.28;60.57;98836.59;1450967;80;21001;-70
2022/06/24 05:31:19;;;;;;;39.92;6.45;;;;;;;17.36;60.49;98837.71;1447537;80;20137;-70
2022/06/24 05:33:20;;;;;;;31.48;6.40;;;;;;;17.40;60.45;98840.96;1448536;81;80993;-71
2022/06/24 05:35:21;;;;;;;44.03;6.90;;;;;;;17.48;60.39;98837.20;1418609;81;21131;-70
2022/06/24 05:37:22;;;;;;;;;;;;;;;17.56;60.36;98835.78;1405297;83;21477;-71
2022/06/24 05:39:23;;;;;;;19.02;5.70;;;;;;;17.64;60.34;98831.98;1419266;83;68436;-71
2022/06/24 05:41:23;;;;;;;;;;;;;;;17.72;60.20;98830.05;1421421;82;21015;-70
2022/06/24 05:43:24;;;;;;;37.10;5.53;;;;;;;17.82;60.11;98829.20;1395721;83;20124;-71
2022/06/24 05:45:26;;;;;;;20.43;5.28;;;;;;;17.93;59.98;98835.50;1417464;82;81598;-71
2022/06/24 05:47:28;;;;;;;23.73;5.20;;;;;;;18.02;59.91;98841.42;1418959;82;21059;-70
2022/06/24 05:49:29;;;;;;;25.25;6.35;;;;;;;18.09;59.76;98842.61;1421518;82;21010;-70
2022/06/24 05:51:34;;;;;;;49.13;6.12;;;;;;;18.16;59.64;98841.13;1419853;82;80710;-71
2022/06/24 05:55:59;;;;;;;44.45;6.15;;;;;;;18.33;59.56;98836.23;1394118;83;21051;-73
2022/06/24 05:58:00;;;;;;;24.43;4.70;;;;;;;18.43;59.48;98834.98;1409770;83;81733;-70
2022/06/24 06:00:01;;;;;;;23.83;5.08;;;;;;;18.54;59.41;98842.46;1449456;81;21095;-71
2022/06/24 06:02:10;;;;;;;20.02;5.00;;;;;;;18.65;59.36;98833.56;1448078;80;21106;-71
2022/06/24 06:04:09;;;;;;;14.83;4.58;;;;;;;18.73;59.00;98830.23;1446072;80;21011;-71
2022/06/24 06:06:15;;;;;;;25.90;4.40;;;;;;;18.80;58.87;98831.42;1451639;80;21325;-72
2022/06/24 06:08:17;;;;;;;22.93;4.97;;;;;;;18.92;58.87;98828.22;1447075;80;82212;-71
2022/06/24 06:10:18;;;;;;;34.70;5.05;;;;;;;19.05;58.69;98834.68;1420327;81;21495;-71
2022/06/24 06:12:19;;;;;;;44.67;5.08;;;;;;;19.14;58.46;98829.89;1384639;85;21001;-72
2022/06/24 06:14:20;;;;;;;45.30;5.67;;;;;;;19.22;58.32;98827.41;1446937;80;81050;-71
2022/06/24 06:16:22;;;;;;;49.42;6.00;;;;;;;19.27;57.93;98822.98;1446426;80;21526;-71
2022/06/24 06:18:23;;;;;;;31.05;5.05;;;;;;;19.34;57.94;98827.31;1447528;80;21082;-71
2022/06/24 06:20:24;;;;;;;40.95;5.30;;;;;;;19.42;57.92;98830.16;1446926;80;86545;-70
2022/06/24 06:22:26;;;;;;;27.75;5.30;;;;;;;19.51;57.81;98828.03;1426321;80;21073;-70
2022/06/24 06:24:27;;;;;;;25.43;4.97;;;;;;;19.60;57.73;98830.38;1422482;81;21607;-71
2022/06/24 06:26:29;;;;;;;46.23;6.72;;;;;;;19.72;57.63;98827.12;1421937;82;80939;-71
2022/06/24 06:28:30;;;;;;;22.60;4.70;;;;;;;19.85;57.57;98830.41;1424239;82;21095;-71
2022/06/24 06:30:31;;;;;;;21.20;4.30;;;;;;;19.93;57.24;98832.91;1422936;82;21029;-71
2022/06/24 06:32:32;;;;;;;14.85;4.50;;;;;;;19.99;57.20;98834.55;1418586;82;80921;-71
2022/06/24 06:34:34;;;;;;;22.62;5.22;;;;;;;20.10;56.81;98835.40;1421081;81;21025;-71
2022/06/24 06:36:35;;;;;;;18.92;4.70;;;;;;;20.18;56.77;98835.55;1423597;82;21316;-72
2022/06/24 06:38:36;;;;;;;25.52;4.90;;;;;;;20.29;56.71;98843.95;1421742;82;80815;-71
2022/06/24 06:40:39;;;;;;;66.70;6.75;;;;;;;20.37;56.46;98839.58;1422534;82;21029;-71
2022/06/24 06:42:41;;;;;;;50.52;7.90;;;;;;;20.48;56.52;98839.94;1423287;82;21056;-72
2022/06/24 06:44:42;;;;;;;19.35;4.50;;;;;;;20.64;56.45;98835.34;1419857;82;81599;-71
2022/06/24 06:46:43;;;;;;;28.90;4.17;;;;;;;20.68;55.85;98839.45;1420466;81;21136;-70
2022/06/24 06:48:44;;;;;;;30.65;4.05;;;;;;;20.77;55.76;98841.80;1420563;82;21016;-71
2022/06/24 06:50:46;;;;;;;24.70;4.72;;;;;;;20.86;55.61;98836.91;1419032;82;81025;-71
2022/06/24 06:52:48;;;;;;;25.50;4.42;;;;;;;20.99;55.73;98842.45;1422552;82;21064;-72
2022/06/24 06:54:49;;;;;;;10.60;3.98;;;;;;;21.09;55.27;98840.62;1423404;82;21539;-70
2022/06/24 06:56:50;;;;;;;25.72;4.25;;;;;;;21.21;55.20;98831.41;1420921;82;81634;-71
2022/06/24 06:58:54;;;;;;;15.98;3.67;;;;;;;21.31;54.82;98834.54;1421897;82;21260;-73
2022/06/24 07:00:55;;;;;;;35.68;4.90;;;;;;;21.41;54.88;98834.03;1419972;82;21017;-71
2022/06/24 07:02:56;;;;;;;22.73;3.83;;;;;;;21.54;54.88;98837.23;1422429;82;81665;-70
2022/06/24 07:04:58;;;;;;;14.30;3.90;;;;;;;21.66;54.63;98829.02;1420870;82;21025;-71
2022/06/24 07:06:59;;;;;;;8.03;3.65;;;;;;;21.80;54.20;98833.88;1420171;82;21072;-71
2022/06/24 07:09:00;;;;;;;4.00;3.08;;;;;;;21.87;53.75;98829.59;1422221;82;81497;-70
2022/06/24 07:11:04;;;;;;;4.10;2.65;;;;;;;21.89;52.67;98830.78;1420636;82;21029;-70
2022/06/24 07:13:05;;;;;;;11.33;3.85;;;;;;;21.89;51.72;98823.59;1420184;82;21703;-71
2022/06/24 07:15:07;;;;;;;50.03;7.05;;;;;;;21.90;52.46;98827.97;1420591;82;82041;-70
2022/06/24 07:17:09;;;;;;;5.90;3.77;;;;;;;22.00;52.75;98828.39;1421140;82;21061;-72
2022/06/24 07:19:10;;;;;;;21.12;3.67;;;;;;;22.08;51.40;98822.63;1422315;82;21060;-72
2022/06/24 07:21:13;;;;;;;11.50;3.25;;;;;;;22.16;51.73;98824.54;1424656;81;81539;-70
2022/06/24 07:23:14;;;;;;;9.10;4.03;;;;;;;22.21;50.81;98827.62;1452021;80;21024;-71
2022/06/24 07:25:17;;;;;;;12.55;4.50;;;;;;;22.27;51.34;98824.31;1451540;80;21039;-71
2022/06/24 07:27:18;;;;;;;6.12;3.37;;;;;;;22.39;50.88;98823.62;1451251;81;80925;-71
2022/06/24 07:29:19;;;;;;;10.35;3.47;;;;;;;22.47;50.90;98819.33;1452081;80;21634;-71
2022/06/24 07:31:20;;;;;;;8.95;3.33;;;;;;;22.51;50.61;98824.73;1451515;80;21048;-71
2022/06/24 07:33:23;;;;;;;14.03;3.80;;;;;;;22.60;50.59;98815.76;1452003;81;81013;-71
2022/06/24 07:35:25;;;;;;;8.00;4.00;;;;;;;22.69;50.75;98813.97;1452736;80;21002;-70
2022/06/24 07:37:26;;;;;;;5.67;3.20;;;;;;;22.86;50.72;98813.11;1451746;80;21015;-71
2022/06/24 07:39:29;;;;;;;4.12;3.10;;;;;;;22.96;49.67;98815.17;1451480;81;80762;-71
2022/06/24 07:41:30;;;;;;;29.45;5.22;;;;;;;22.99;49.76;98809.16;1453271;80;21014;-71
2022/06/24 07:43:31;;;;;;;2.90;2.70;;;;;;;23.00;49.41;98813.52;1451888;80;20966;-70
2022/06/24 07:45:32;;;;;;;3.22;2.92;;;;;;;22.99;48.82;98814.53;1452772;80;80531;-71
2022/06/24 07:47:35;;;;;;;10.28;2.45;;;;;;;23.08;49.59;98813.56;1451729;80;21065;-71
2022/06/24 07:49:36;;;;;;;10.08;2.80;;;;;;;23.21;48.99;98809.99;1451749;80;20934;-70
2022/06/24 07:51:37;;;;;;;7.83;2.40;;;;;;;23.28;48.08;98808.86;1452170;80;81568;-71
2022/06/24 07:53:40;;;;;;;5.37;2.33;;;;;;;23.25;48.58;98804.64;1452043;80;20981;-72
2022/06/24 07:58:02;;;;;;;3.85;1.72;;;;;;;23.46;47.51;98808.78;1451362;80;80620;-71
2022/06/24 08:00:04;;;;;;;6.92;2.50;;;;;;;23.50;47.69;98803.94;1421413;82;21004;-70
2022/06/24 08:02:07;;;;;;;2.30;2.02;;;;;;;23.53;46.68;98796.87;1449705;80;21043;-70
2022/06/24 08:04:10;;;;;;;3.62;2.60;;;;;;;23.47;46.90;98790.30;1448588;80;81800;-71
2022/06/24 08:06:12;;;;;;;3.30;2.20;;;;;;;23.52;47.68;98793.84;1452207;80;20962;-71
2022/06/24 08:08:13;;;;;;;10.28;3.08;;;;;;;23.60;47.42;98785.28;1449179;80;81551;-71
2022/06/24 08:10:14;;;;;;;6.95;2.12;;;;;;;23.71;47.85;98783.33;1422624;83;21036;-70
2022/06/24 08:12:15;;;;;;;3.30;1.82;;;;;;;23.84;46.80;98783.68;1425157;82;21039;-71
2022/06/24 08:14:17;;;;;;;6.22;2.10;;;;;;;23.87;46.91;98780.69;1449001;80;81703;-70
2022/06/24 08:16:18;;;;;;;2.83;1.95;;;;;;;24.01;47.31;98775.67;1452268;80;21026;-71
2022/06/24 08:18:20;;;;;;;0.85;0.85;;;;;;;24.14;46.58;98778.73;1451772;80;21062;-69
2022/06/24 08:20:21;;;;;;;5.03;1.92;;;;;;;24.10;43.74;98774.69;1450831;80;81940;-71
2022/06/24 08:22:22;;;;;;;9.48;2.35;;;;;;;24.06;45.09;98778.72;1420414;82;21099;-72
2022/06/24 08:24:23;;;;;;;4.42;1.67;;;;;;;24.02;44.75;98780.06;1383136;84;21044;-70
2022/06/24 08:26:24;;;;;;;1.75;1.65;;;;;;;24.00;44.91;98776.19;1446436;80;81990;-70
2022/06/24 08:28:25;;;;;;;5.37;2.10;;;;;;;24.06;44.83;98778.20;1448340;80;21059;-70
2022/06/24 08:30:27;;;;;;;20.50;2.05;;;;;;;24.14;44.50;98773.35;1447503;81;21087;-70
2022/06/24 08:32:28;;;;;;;1.55;1.45;;;;;;;24.24;44.93;98774.02;1446005;80;80863;-70
2022/06/24 08:34:29;;;;;;;2.67;1.60;;;;;;;24.33;44.20;98769.99;1447186;80;21036;-70
2022/06/24 08:36:30;;;;;;;2.52;2.05;;;;;;;24.34;44.39;98759.56;1419339;83;21890;-70
2022/06/24 08:38:31;;;;;;;6.33;1.65;;;;;;;24.44;44.74;98756.21;1394659;83;81539;-70
2022/06/24 08:40:33;;;;;;;16.20;1.80;;;;;;;24.51;44.10;98767.99;1394664;83;21546;-69
2022/06/24 08:42:37;;;;;;;1.50;1.40;;;;;;;24.59;44.56;98762.60;1395488;85;21520;-69
2022/06/24 08:44:39;;;;;;;2.45;1.80;;;;;;;24.77;44.50;98755.70;1394500;83;81557;-70
2022/06/24 08:46:40;;;;;;;4.20;1.55;;;;;;;24.96;44.67;98742.85;1392224;83;21063;-70
2022/06/24 08:48:45;;;;;;;1.62;1.52;;;;;;;25.15;44.51;98747.84;1383599;84;21027;-68
2022/06/24 08:50:47;;;;;;;6.47;1.70;;;;;;;25.16;42.72;98752.23;1446393;80;80721;-70
2022/06/24 08:52:51;;;;;;;4.08;1.70;;;;;;;25.07;43.14;98747.04;1445774;80;21555;-69
2022/06/24 08:54:53;;;;;;;7.08;1.82;;;;;;;25.08;43.11;98741.98;1449616;82;21886;-69
2022/06/24 08:56:55;;;;;;;2.17;1.90;;;;;;;25.12;43.12;98748.72;1446421;80;81424;-70
2022/06/24 08:58:57;;;;;;;6.45;1.85;;;;;;;25.19;43.22;98740.27;1447480;80;21000;-70
2022/06/24 09:00:58;;;;;;;153.00;13.45;;;;;;;25.28;43.19;98748.67;1448031;82;21088;-71
2022/06/24 09:02:59;;;;;;;3.10;1.65;;;;;;;25.33;42.50;98742.25;1445738;80;81894;-70
2022/06/24 09:05:09;;;;;;;10.43;1.90;;;;;;;25.43;42.86;98746.60;1447761;80;21099;-70
2022/06/24 09:07:24;;;;;;;14.70;2.22;;;;;;;25.47;41.98;98741.19;1418648;83;21052;-69
2022/06/24 09:09:26;;;;;;;4.60;1.65;;;;;;;25.44;41.85;98746.42;1381754;83;81846;-70
2022/06/24 09:11:36;;;;;;;5.28;1.85;;;;;;;25.51;42.17;98740.34;1448544;79;21025;-69
2022/06/24 09:13:46;;;;;;;9.78;1.70;;;;;;;25.52;42.55;98732.06;1448459;80;22337;-70
2022/06/24 09:15:53;;;;;;;6.50;1.75;;;;;;;25.63;42.47;98726.27;1447549;81;81236;-70
2022/06/24 09:17:55;;;;;;;7.22;1.72;;;;;;;25.63;41.97;98730.84;1445487;80;21046;-71
2022/06/24 09:20:05;;;;;;;4.75;1.90;;;;;;;25.76;41.65;98720.80;1448289;80;21484;-71
2022/06/24 09:22:06;;;;;;;5.12;1.45;;;;;;;25.86;41.98;98728.14;1432551;81;81486;-71
2022/06/24 09:24:09;;;;;;;7.90;1.90;;;;;;;25.98;41.02;98725.89;1407770;83;21059;-71
2022/06/24 09:26:10;;;;;;;3.40;1.15;;;;;;;25.92;41.43;98730.14;1409267;82;81655;-71
2022/06/24 09:28:11;;;;;;;2.67;1.80;;;;;;;25.92;40.81;98730.63;1384153;84;21085;-70
2022/06/24 09:30:15;;;;;;;1.82;1.32;;;;;;;25.86;41.13;98724.61;1382825;84;21060;-70
2022/06/24 09:32:16;;;;;;;6.75;1.60;;;;;;;25.95;41.58;98724.38;1382984;83;81594;-70
2022/06/24 09:34:18;;;;;;;1.87;1.27;;;;;;;26.08;41.73;98722.97;1403897;83;21110;-70
2022/06/24 09:36:23;;;;;;;114.57;9.88;;;;;;;26.26;41.43;98724.02;1385697;84;21078;-70
2022/06/24 09:38:25;;;;;;;11.88;2.27;;;;;;;26.30;41.02;98718.05;1408071;83;81953;-72
2022/06/24 09:40:30;;;;;;;6.72;1.67;;;;;;;26.39;40.89;98713.94;1407857;83;21543;-70
2022/06/24 09:42:31;;;;;;;6.90;1.35;;;;;;;26.46;40.67;98708.98;1408626;83;21055;-70
2022/06/24 09:44:46;;;;;;;2.45;1.47;;;;;;;26.42;40.49;98721.17;1406066;83;80755;-69
2022/06/24 09:46:51;;;;;;;26.12;2.00;;;;;;;26.45;40.54;98707.81;1407977;83;21097;-70